Time;durP1;ratioP1;P1;durP2;ratioP2;P2;SDS_P1;SDS_P2;PMS_P1;PMS_P2;Temp;Humidity;BMP_temperature;BMP_pressure;BME280_temperature;BME280_humidity;BME280_pressure;Samples;Min_cycle;Max_cycle;Signal;HPM_P1;HPM_P2
2022/05/13 00:00:16;;;;;;;7.00;3.10;;;12.40;99.90;;;;;;5029435;28;20442;-44
2022/05/13 00:02:44;;;;;;;6.30;2.90;;;12.40;99.90;;;;;;5054733;28;20216;-46
2022/05/13 00:05:12;;;;;;;7.05;2.95;;;12.30;99.90;;;;;;5041234;28;20223;-49
2022/05/13 00:07:39;;;;;;;5.28;3.03;;;12.20;99.90;;;;;;5060167;28;20351;-42
2022/05/13 00:10:07;;;;;;;6.72;2.90;;;12.20;99.90;;;;;;5060227;28;20302;-48
2022/05/13 00:12:38;;;;;;;6.00;3.00;;;12.10;99.90;;;;;;5051935;28;20413;-42
2022/05/13 00:15:10;;;;;;;8.73;3.10;;;12.00;99.90;;;;;;5044708;28;20234;-44
2022/05/13 00:17:36;;;;;;;7.25;3.30;;;12.10;99.90;;;;;;5050170;28;20233;-45
2022/05/13 00:20:04;;;;;;;4.88;3.30;;;12.00;99.90;;;;;;5033048;28;20479;-44
2022/05/13 00:22:31;;;;;;;6.90;3.08;;;12.00;99.90;;;;;;5057286;28;20239;-46
2022/05/13 00:24:58;;;;;;;7.72;3.35;;;12.00;99.90;;;;;;5037457;28;20207;-45
2022/05/13 00:27:25;;;;;;;8.90;3.33;;;12.10;99.90;;;;;;5050390;28;20264;-45
2022/05/13 00:29:52;;;;;;;4.15;2.88;;;12.00;99.90;;;;;;5021246;28;20215;-45
2022/05/13 00:32:20;;;;;;;9.20;3.47;;;12.00;99.90;;;;;;5041886;28;20228;-46
2022/05/13 00:34:48;;;;;;;5.20;3.03;;;12.00;99.90;;;;;;5035277;28;20209;-45
2022/05/13 00:37:15;;;;;;;5.38;3.33;;;12.00;99.90;;;;;;5043227;28;20743;-46
2022/05/13 00:39:42;;;;;;;10.15;3.72;;;12.00;99.90;;;;;;5064383;28;20212;-45
2022/05/13 00:42:11;;;;;;;8.23;3.38;;;12.00;99.90;;;;;;5052388;28;20328;-46
2022/05/13 00:44:38;;;;;;;5.78;3.13;;;12.00;99.90;;;;;;5060796;28;20510;-44
2022/05/13 00:47:05;;;;;;;9.20;3.55;;;11.80;99.90;;;;;;5062064;28;20209;-46
2022/05/13 00:49:35;;;;;;;6.03;3.10;;;11.70;99.90;;;;;;5037528;28;20213;-46
2022/05/13 00:52:04;;;;;;;4.40;3.28;;;11.50;99.90;;;;;;5034719;28;20203;-46
2022/05/13 00:54:33;;;;;;;5.88;3.00;;;11.40;99.90;;;;;;5054844;28;20220;-48
2022/05/13 00:57:00;;;;;;;5.05;3.20;;;11.20;99.90;;;;;;5043034;28;20207;-46
2022/05/13 00:59:32;;;;;;;6.95;3.38;;;11.10;99.90;;;;;;5052458;28;20377;-46
2022/05/13 01:01:59;;;;;;;5.78;2.85;;;10.90;99.90;;;;;;5056613;28;20396;-46
2022/05/13 01:04:27;;;;;;;10.30;3.20;;;10.90;99.90;;;;;;5034664;28;21390;-46
2022/05/13 01:06:59;;;;;;;3.35;2.95;;;10.80;99.90;;;;;;5052135;28;20402;-45
2022/05/13 01:09:29;;;;;;;7.40;3.13;;;10.70;99.90;;;;;;5042972;28;20416;-46
2022/05/13 01:11:59;;;;;;;4.88;3.25;;;10.80;99.90;;;;;;5059899;28;20279;-44
2022/05/13 01:14:29;;;;;;;5.43;3.33;;;10.70;99.90;;;;;;5039858;28;20952;-45
2022/05/13 01:20:09;;;;;;;3.22;2.72;;;10.60;99.90;;;;;;5036141;28;20258;-46
2022/05/13 01:22:43;;;;;;;8.23;3.67;;;10.50;99.90;;;;;;5051910;28;20549;-45
2022/05/13 01:25:12;;;;;;;4.03;3.08;;;10.50;99.90;;;;;;5025572;28;20261;-45
2022/05/13 01:27:41;;;;;;;6.43;3.50;;;10.50;99.90;;;;;;5036666;28;20220;-45
2022/05/13 01:30:09;;;;;;;6.60;3.35;;;10.60;99.90;;;;;;5056235;28;20579;-45
2022/05/13 01:32:36;;;;;;;7.30;3.30;;;10.70;99.90;;;;;;5063546;28;20276;-45
2022/05/13 01:35:03;;;;;;;3.45;2.80;;;10.70;99.90;;;;;;5026295;28;20213;-45
2022/05/13 01:37:30;;;;;;;7.60;3.40;;;10.70;99.90;;;;;;5047974;28;20457;-45
2022/05/13 01:39:59;;;;;;;3.85;3.38;;;10.80;99.90;;;;;;5039400;28;20208;-46
2022/05/13 01:42:25;;;;;;;6.47;3.42;;;10.80;99.90;;;;;;5051692;28;20618;-45
2022/05/13 01:44:52;;;;;;;7.25;3.70;;;10.80;99.90;;;;;;5045832;28;20635;-45
2022/05/13 01:47:19;;;;;;;6.38;2.95;;;10.70;99.90;;;;;;5057617;28;20371;-44
2022/05/13 01:49:46;;;;;;;5.90;3.50;;;10.70;99.90;;;;;;5046152;28;20296;-44
2022/05/13 01:52:13;;;;;;;7.28;3.03;;;10.70;99.90;;;;;;5045886;28;20230;-45
2022/05/13 01:54:40;;;;;;;3.17;2.70;;;10.70;99.90;;;;;;5037359;28;20416;-45
2022/05/13 01:57:08;;;;;;;5.25;3.15;;;10.60;99.90;;;;;;5040282;28;20307;-47
2022/05/13 01:59:35;;;;;;;5.30;2.92;;;10.60;99.90;;;;;;5043422;28;20208;-44
2022/05/13 02:02:03;;;;;;;4.60;2.72;;;10.50;99.90;;;;;;5057618;28;20300;-46
2022/05/13 02:04:29;;;;;;;8.35;2.88;;;10.40;99.90;;;;;;5039579;28;20498;-46
2022/05/13 02:06:57;;;;;;;2.65;2.22;;;10.50;99.90;;;;;;5061166;28;20292;-46
2022/05/13 02:09:24;;;;;;;5.90;2.88;;;10.50;99.90;;;;;;5025821;28;20692;-46
2022/05/13 02:11:51;;;;;;;4.40;2.28;;;10.30;99.90;;;;;;5052223;28;20209;-46
2022/05/13 02:14:19;;;;;;;4.10;2.50;;;10.20;99.90;;;;;;5030720;28;20211;-46
2022/05/13 02:16:46;;;;;;;3.72;2.55;;;10.20;99.90;;;;;;5052452;28;20284;-45
2022/05/13 02:19:13;;;;;;;4.93;2.95;;;10.20;99.90;;;;;;5056094;28;20248;-45
2022/05/13 02:21:40;;;;;;;7.38;3.13;;;10.30;99.90;;;;;;5047333;28;20229;-46
2022/05/13 02:24:08;;;;;;;4.75;2.50;;;10.30;99.90;;;;;;5044466;28;20208;-50
2022/05/13 02:26:35;;;;;;;4.13;2.90;;;10.30;99.90;;;;;;5028118;28;20540;-49
2022/05/13 02:29:02;;;;;;;6.22;2.85;;;10.30;99.90;;;;;;5046638;28;20235;-43
2022/05/13 02:31:30;;;;;;;6.13;2.67;;;10.40;99.90;;;;;;5035411;28;20258;-49
2022/05/13 02:33:58;;;;;;;2.75;2.40;;;10.50;99.90;;;;;;5060488;28;20599;-42
2022/05/13 02:36:25;;;;;;;7.88;2.63;;;10.50;99.90;;;;;;5042147;28;20288;-44
2022/05/13 02:38:51;;;;;;;4.07;2.55;;;10.60;99.90;;;;;;5051824;28;20315;-48
2022/05/13 02:41:19;;;;;;;5.82;2.25;;;10.70;99.90;;;;;;5048744;28;21523;-44
2022/05/13 02:43:48;;;;;;;5.00;2.35;;;10.80;99.90;;;;;;5040802;28;20217;-46
2022/05/13 02:46:16;;;;;;;4.32;2.20;;;10.90;99.90;;;;;;5045669;28;20714;-44
2022/05/13 02:48:45;;;;;;;3.20;2.25;;;11.10;99.90;;;;;;5048194;28;20220;-49
2022/05/13 02:51:12;;;;;;;3.17;2.35;;;11.10;99.90;;;;;;5041202;28;20238;-43
2022/05/13 02:53:39;;;;;;;6.10;2.78;;;11.20;99.90;;;;;;5047396;28;20219;-50
2022/05/13 02:56:07;;;;;;;7.20;2.28;;;11.30;99.90;;;;;;5047940;28;20208;-46
2022/05/13 02:58:34;;;;;;;3.47;2.13;;;11.40;99.90;;;;;;5041414;28;20553;-49
2022/05/13 03:01:02;;;;;;;6.35;2.40;;;11.40;99.90;;;;;;5041246;28;20260;-46
2022/05/13 03:03:30;;;;;;;4.03;2.10;;;11.40;99.90;;;;;;5053365;28;20227;-48
2022/05/13 03:05:59;;;;;;;4.53;2.53;;;11.50;99.90;;;;;;5051791;28;20521;-49
2022/05/13 03:08:26;;;;;;;2.78;2.30;;;11.50;99.90;;;;;;5045821;28;20228;-50
2022/05/13 03:10:53;;;;;;;7.53;2.15;;;11.60;99.90;;;;;;5033127;28;20211;-46
2022/05/13 03:13:20;;;;;;;3.65;2.15;;;11.60;99.90;;;;;;5055227;28;20215;-44
2022/05/13 03:15:48;;;;;;;4.18;2.13;;;11.60;99.90;;;;;;5047475;28;20213;-46
2022/05/13 03:18:15;;;;;;;3.63;2.55;;;11.60;99.90;;;;;;5035008;28;20236;-47
2022/05/13 03:20:42;;;;;;;8.70;2.40;;;11.60;99.90;;;;;;5059288;28;20283;-46
2022/05/13 03:23:11;;;;;;;6.13;2.42;;;11.60;99.90;;;;;;5045728;28;20229;-46
2022/05/13 03:25:37;;;;;;;5.70;2.60;;;11.60;99.90;;;;;;5041085;28;20276;-47
2022/05/13 03:28:05;;;;;;;6.10;2.60;;;11.60;99.90;;;;;;5037911;28;20229;-45
2022/05/13 03:30:31;;;;;;;2.67;2.30;;;11.60;99.90;;;;;;5048265;28;20209;-47
2022/05/13 03:32:58;;;;;;;4.43;2.45;;;11.60;99.90;;;;;;5048506;28;20276;-45
2022/05/13 03:35:25;;;;;;;5.00;2.78;;;11.60;99.90;;;;;;5061266;28;20262;-46
2022/05/13 03:37:52;;;;;;;5.00;2.55;;;11.60;99.90;;;;;;5048632;28;20216;-48
2022/05/13 03:40:21;;;;;;;4.55;2.45;;;11.70;99.90;;;;;;5049975;28;20201;-43
2022/05/13 03:42:48;;;;;;;5.25;2.80;;;11.70;99.90;;;;;;5027117;28;20221;-47
2022/05/13 03:45:17;;;;;;;6.80;2.22;;;11.60;99.90;;;;;;5034177;28;20235;-46
2022/05/13 03:47:45;;;;;;;3.92;2.70;;;11.70;99.90;;;;;;5043795;28;20418;-47
2022/05/13 03:50:13;;;;;;;3.72;2.60;;;11.70;99.90;;;;;;5054468;28;20604;-45
2022/05/13 03:52:40;;;;;;;6.57;2.38;;;11.70;99.90;;;;;;5059719;28;20238;-45
2022/05/13 03:55:08;;;;;;;3.60;2.50;;;11.70;99.90;;;;;;5043610;28;20308;-46
2022/05/13 03:57:36;;;;;;;5.70;2.42;;;11.70;99.90;;;;;;5027334;28;21576;-45
2022/05/13 04:00:04;;;;;;;3.53;2.42;;;11.70;99.90;;;;;;5046241;28;20284;-44
2022/05/13 04:02:30;;;;;;;4.30;2.35;;;11.70;99.90;;;;;;5037458;28;20253;-46
2022/05/13 04:10:27;;;;;;;6.10;2.30;;;11.80;99.90;;;;;;5043610;28;20227;-45
2022/05/13 04:18:24;;;;;;;4.22;2.50;;;11.80;99.90;;;;;;5051493;28;20570;-45
2022/05/13 04:20:51;;;;;;;5.97;2.40;;;11.80;99.90;;;;;;5053066;28;20602;-45
2022/05/13 04:23:18;;;;;;;5.68;2.85;;;11.80;99.90;;;;;;5069291;28;20252;-46
2022/05/13 04:25:45;;;;;;;4.05;2.95;;;11.80;99.90;;;;;;5026066;28;20212;-44
2022/05/13 04:28:13;;;;;;;6.63;3.13;;;11.80;99.90;;;;;;5066533;28;20231;-45
2022/05/13 04:30:41;;;;;;;6.50;3.75;;;11.80;99.90;;;;;;5027272;28;20236;-46
2022/05/13 04:33:08;;;;;;;4.88;3.08;;;11.80;99.90;;;;;;5035859;28;20303;-44
2022/05/13 04:35:35;;;;;;;11.52;2.70;;;11.80;99.90;;;;;;5052215;28;20278;-44
2022/05/13 04:38:02;;;;;;;6.45;2.47;;;11.80;99.90;;;;;;5040058;28;20220;-44
2022/05/13 04:40:29;;;;;;;8.75;2.67;;;11.90;99.90;;;;;;5039600;28;20294;-45
2022/05/13 04:42:55;;;;;;;4.55;2.72;;;11.90;99.90;;;;;;5062937;28;20486;-46
2022/05/13 04:45:25;;;;;;;7.72;2.90;;;11.90;99.90;;;;;;5035470;28;20241;-45
2022/05/13 04:50:37;;;;;;;7.47;2.50;;;11.90;99.90;;;;;;5050263;28;20229;-49
2022/05/13 04:53:05;;;;;;;6.10;2.78;;;11.90;99.90;;;;;;5049541;28;20228;-47
2022/05/13 04:55:33;;;;;;;7.13;2.80;;;11.90;99.90;;;;;;5044421;28;20214;-44
2022/05/13 04:57:59;;;;;;;6.35;2.75;;;12.00;99.90;;;;;;5049932;28;20603;-42
2022/05/13 05:00:28;;;;;;;6.60;2.70;;;11.90;99.90;;;;;;5036318;28;20219;-47
2022/05/13 05:02:55;;;;;;;9.82;2.45;;;12.00;99.90;;;;;;5038335;28;20221;-43
2022/05/13 05:05:23;;;;;;;8.07;2.55;;;11.90;99.90;;;;;;5047510;28;20209;-43
2022/05/13 05:07:50;;;;;;;5.75;3.13;;;11.90;99.90;;;;;;5063457;28;20626;-49
2022/05/13 05:10:18;;;;;;;5.75;2.50;;;11.90;99.90;;;;;;5033616;28;20753;-45
2022/05/13 05:12:45;;;;;;;7.40;2.30;;;11.90;99.90;;;;;;5058269;28;20242;-49
2022/05/13 05:15:12;;;;;;;6.43;2.78;;;11.90;99.90;;;;;;5031285;28;20212;-49
2022/05/13 05:17:41;;;;;;;7.57;2.60;;;11.90;99.90;;;;;;5040794;28;20566;-45
2022/05/13 05:20:09;;;;;;;4.22;2.78;;;11.90;99.90;;;;;;5034982;28;20605;-49
2022/05/13 05:22:37;;;;;;;6.30;2.50;;;11.90;99.90;;;;;;5056314;28;20251;-44
2022/05/13 05:25:04;;;;;;;3.85;2.70;;;11.90;99.90;;;;;;5043966;28;20209;-48
2022/05/13 05:27:35;;;;;;;7.38;2.60;;;11.90;99.90;;;;;;5050224;28;20224;-44
2022/05/13 05:30:03;;;;;;;8.98;2.75;;;12.00;99.90;;;;;;5056450;28;20208;-49
2022/05/13 05:32:30;;;;;;;5.40;2.90;;;12.00;99.90;;;;;;5034234;28;20200;-46
2022/05/13 05:34:58;;;;;;;5.95;2.55;;;12.00;99.90;;;;;;5049740;28;20257;-46
2022/05/13 05:37:25;;;;;;;7.32;2.58;;;12.00;99.90;;;;;;5056362;28;20520;-45
2022/05/13 05:47:02;;;;;;;6.68;2.88;;;13.30;99.90;;;;;;5069834;27;20301;-60
2022/05/13 05:49:28;;;;;;;8.82;2.75;;;12.00;99.90;;;;;;5059004;28;20215;-60
2022/05/13 05:51:55;;;;;;;8.90;2.70;;;12.00;99.90;;;;;;5037653;28;20759;-60
2022/05/13 05:57:16;;;;;;;6.75;2.80;;;12.00;99.90;;;;;;5040776;28;20210;-60
2022/05/13 05:59:44;;;;;;;7.05;2.85;;;12.00;99.90;;;;;;5049832;28;20216;-60
2022/05/13 06:02:14;;;;;;;4.70;2.53;;;11.90;99.90;;;;;;5057948;28;20371;-59
2022/05/13 06:04:40;;;;;;;3.88;2.25;;;12.00;99.90;;;;;;5055572;28;20200;-60
2022/05/13 06:07:12;;;;;;;5.53;2.60;;;11.90;99.90;;;;;;5042486;28;20204;-60
2022/05/13 06:09:40;;;;;;;8.35;3.08;;;12.00;99.90;;;;;;5039516;28;20221;-59
2022/05/13 06:12:09;;;;;;;6.57;2.65;;;12.00;99.90;;;;;;5034298;28;20401;-60
2022/05/13 06:14:37;;;;;;;6.10;3.05;;;12.00;99.90;;;;;;5043139;28;21193;-60
2022/05/13 06:17:04;;;;;;;7.53;2.50;;;12.10;99.90;;;;;;5042350;28;20197;-60
2022/05/13 06:19:33;;;;;;;5.38;2.40;;;12.10;99.90;;;;;;5063695;28;20193;-60
2022/05/13 06:22:00;;;;;;;9.75;3.25;;;12.10;99.90;;;;;;5061717;28;20203;-59
2022/05/13 06:24:27;;;;;;;10.32;2.90;;;12.10;99.90;;;;;;5055093;28;20695;-60
2022/05/13 06:26:53;;;;;;;9.52;3.00;;;12.10;99.90;;;;;;5044747;28;20704;-60
2022/05/13 06:29:23;;;;;;;10.73;2.47;;;12.10;99.90;;;;;;5056513;28;20730;-60
2022/05/13 06:31:52;;;;;;;8.27;3.92;;;12.00;99.90;;;;;;5057683;28;20200;-59
2022/05/13 06:34:19;;;;;;;5.93;2.60;;;12.10;99.90;;;;;;5068245;28;20219;-59
2022/05/13 06:36:47;;;;;;;7.57;3.08;;;12.10;99.90;;;;;;5070244;28;20665;-60
2022/05/13 06:39:14;;;;;;;8.63;2.97;;;12.10;99.90;;;;;;5049292;28;20211;-60
2022/05/13 06:41:41;;;;;;;7.72;2.63;;;12.10;99.90;;;;;;5049790;28;20203;-63
2022/05/13 06:44:09;;;;;;;5.88;2.88;;;12.10;99.90;;;;;;5058350;28;20208;-60
2022/05/13 06:46:38;;;;;;;6.28;2.97;;;12.20;99.90;;;;;;5036214;28;20700;-59
2022/05/13 06:49:05;;;;;;;6.63;2.92;;;12.20;99.90;;;;;;5051150;28;20259;-60
2022/05/13 06:51:32;;;;;;;7.93;2.78;;;12.20;99.90;;;;;;5064255;28;20223;-60
2022/05/13 06:54:03;;;;;;;6.95;3.20;;;12.30;99.90;;;;;;5033100;28;20976;-60
2022/05/13 06:56:31;;;;;;;9.60;3.40;;;12.20;99.90;;;;;;5033668;28;20209;-60
2022/05/13 06:58:58;;;;;;;6.57;2.97;;;12.30;99.90;;;;;;5038997;28;20247;-60
2022/05/13 07:01:25;;;;;;;10.10;3.08;;;12.30;99.90;;;;;;5020915;28;20689;-60
2022/05/13 07:03:52;;;;;;;11.63;3.40;;;12.40;99.90;;;;;;5034781;28;20220;-59
2022/05/13 07:06:19;;;;;;;8.50;3.55;;;12.40;99.90;;;;;;5035504;28;20224;-59
2022/05/13 07:08:47;;;;;;;13.30;3.15;;;12.40;99.90;;;;;;5025949;28;20202;-59
2022/05/13 07:11:15;;;;;;;9.50;3.25;;;12.50;99.90;;;;;;5033017;28;20592;-60
2022/05/13 07:13:42;;;;;;;11.57;4.15;;;12.50;99.90;;;;;;5044336;28;21275;-59
2022/05/13 07:16:09;;;;;;;8.65;3.00;;;12.50;99.90;;;;;;5019262;28;20229;-64
2022/05/13 07:18:38;;;;;;;10.73;2.85;;;12.50;99.90;;;;;;5048682;28;20225;-61
2022/05/13 07:21:06;;;;;;;7.90;3.25;;;12.50;99.90;;;;;;5042723;28;20197;-60
2022/05/13 07:23:33;;;;;;;14.10;3.20;;;12.60;99.90;;;;;;5048077;28;20231;-59
2022/05/13 07:26:00;;;;;;;13.90;3.30;;;12.70;99.90;;;;;;5016001;28;20330;-59
2022/05/13 07:28:28;;;;;;;6.97;2.63;;;12.80;99.90;;;;;;5050168;28;20221;-59
2022/05/13 07:30:55;;;;;;;6.57;2.88;;;12.90;99.90;;;;;;5021505;28;20207;-59
2022/05/13 07:33:23;;;;;;;10.32;3.35;;;13.00;99.90;;;;;;5041438;28;20226;-60
2022/05/13 07:35:50;;;;;;;10.80;3.88;;;13.10;99.90;;;;;;5039196;28;20225;-59
2022/05/13 07:38:17;;;;;;;12.95;3.25;;;13.20;99.90;;;;;;5059880;28;20235;-59
2022/05/13 07:43:30;;;;;;;12.55;3.60;;;13.30;99.90;;;;;;5059802;28;20830;-59
2022/05/13 07:45:57;;;;;;;7.10;3.45;;;13.40;99.90;;;;;;5023967;28;20236;-59
2022/05/13 07:48:24;;;;;;;10.35;3.53;;;13.40;99.90;;;;;;5039724;28;20205;-59
2022/05/13 07:50:52;;;;;;;11.73;4.10;;;13.50;99.90;;;;;;5036120;28;20201;-59
2022/05/13 07:53:19;;;;;;;11.95;3.15;;;13.60;99.90;;;;;;5034319;28;20212;-59
2022/05/13 07:55:45;;;;;;;10.00;3.10;;;13.70;99.90;;;;;;5025751;28;21089;-60
2022/05/13 07:58:12;;;;;;;8.93;3.55;;;13.80;99.90;;;;;;5037681;28;20208;-59
2022/05/13 08:00:42;;;;;;;8.65;3.03;;;13.90;99.90;;;;;;5041035;28;20228;-60
2022/05/13 08:03:12;;;;;;;6.35;3.03;;;14.00;99.90;;;;;;5030644;28;20228;-59
2022/05/13 08:05:42;;;;;;;8.85;3.40;;;14.00;99.90;;;;;;5036665;28;20224;-59
2022/05/13 08:08:11;;;;;;;12.43;3.58;;;14.00;99.90;;;;;;5036778;28;20229;-59
2022/05/13 08:10:40;;;;;;;6.95;2.70;;;14.00;99.90;;;;;;5032495;28;20206;-60
2022/05/13 08:13:08;;;;;;;7.85;3.17;;;14.10;99.90;;;;;;5038969;28;20201;-60
2022/05/13 08:15:36;;;;;;;9.48;2.85;;;14.10;99.90;;;;;;5037743;28;20205;-59
2022/05/13 08:18:04;;;;;;;10.63;2.97;;;14.20;99.90;;;;;;5034364;28;20961;-59
2022/05/13 08:20:31;;;;;;;11.50;3.03;;;14.30;99.90;;;;;;5036472;28;20292;-59
2022/05/13 08:22:59;;;;;;;9.40;3.15;;;14.30;99.90;;;;;;5042763;28;20259;-59
2022/05/13 08:25:26;;;;;;;7.13;2.80;;;14.30;99.90;;;;;;5037988;28;20216;-60
2022/05/13 08:27:53;;;;;;;12.15;3.30;;;14.40;99.90;;;;;;4998122;28;20231;-59
2022/05/13 08:30:21;;;;;;;7.47;2.42;;;14.40;99.90;;;;;;5013358;28;20614;-60
2022/05/13 08:32:47;;;;;;;9.65;3.33;;;14.60;99.90;;;;;;5034868;28;20208;-58
2022/05/13 08:35:17;;;;;;;15.23;3.38;;;14.70;99.90;;;;;;5025414;28;20207;-60
2022/05/13 08:37:45;;;;;;;7.45;3.13;;;14.70;99.90;;;;;;5038794;28;20220;-60
2022/05/13 08:40:22;;;;;;;7.63;3.13;;;14.70;99.90;;;;;;5038207;28;20231;-60
2022/05/13 08:42:49;;;;;;;17.40;2.90;;;14.80;99.90;;;;;;5032010;28;20212;-60
2022/05/13 08:45:18;;;;;;;14.20;2.72;;;14.80;99.90;;;;;;5024313;28;20228;-59
2022/05/13 08:47:50;;;;;;;4.45;2.47;;;14.70;99.90;;;;;;5044139;28;20228;-59
2022/05/13 08:50:24;;;;;;;11.70;2.95;;;14.80;99.90;;;;;;5023558;28;20216;-61
2022/05/13 08:53:10;;;;;;;10.45;2.72;;;14.80;99.90;;;;;;5031451;28;20213;-60
2022/05/13 08:55:42;;;;;;;8.27;2.97;;;14.90;99.90;;;;;;5039506;28;20204;-60
2022/05/13 08:58:14;;;;;;;5.78;2.45;;;14.90;99.90;;;;;;5030380;28;20689;-60
2022/05/13 09:00:43;;;;;;;7.22;2.42;;;15.00;99.90;;;;;;5009598;28;20224;-59
2022/05/13 09:03:31;;;;;;;9.38;3.00;;;15.10;99.90;;;;;;5021771;28;20205;-60
2022/05/13 09:06:04;;;;;;;8.15;2.28;;;15.20;99.90;;;;;;5008753;28;20228;-60
2022/05/13 09:08:33;;;;;;;10.05;2.60;;;15.50;99.90;;;;;;5020372;28;20336;-60
2022/05/13 09:11:13;;;;;;;7.60;2.20;;;15.40;99.90;;;;;;5028266;28;20228;-60
2022/05/13 09:13:48;;;;;;;4.60;2.40;;;15.30;99.90;;;;;;5031352;28;20201;-60
2022/05/13 09:16:18;;;;;;;2.05;1.75;;;15.40;99.90;;;;;;5021440;28;20281;-61
2022/05/13 09:18:55;;;;;;;5.03;2.15;;;15.40;99.90;;;;;;5050042;28;20670;-60
2022/05/13 09:21:24;;;;;;;6.50;2.03;;;15.50;99.90;;;;;;5022297;28;20366;-60
2022/05/13 09:23:50;;;;;;;10.50;2.30;;;15.70;99.90;;;;;;5041823;28;20216;-59
2022/05/13 09:26:21;;;;;;;6.53;2.55;;;15.70;99.90;;;;;;5038188;28;20224;-60
2022/05/13 09:29:07;;;;;;;6.30;2.10;;;15.70;99.90;;;;;;5047345;28;20205;-60
2022/05/13 09:31:37;;;;;;;3.42;1.80;;;15.70;99.90;;;;;;5030050;28;20201;-60
2022/05/13 09:34:03;;;;;;;5.93;2.28;;;15.90;99.90;;;;;;5044469;28;20229;-60
2022/05/13 09:36:35;;;;;;;4.38;2.15;;;16.00;99.90;;;;;;5031546;28;21170;-60
2022/05/13 09:39:20;;;;;;;6.05;2.08;;;16.10;99.90;;;;;;5016228;28;20220;-60
2022/05/13 09:41:48;;;;;;;5.82;2.10;;;16.00;99.90;;;;;;5030385;28;20221;-60
2022/05/13 09:44:20;;;;;;;4.88;2.22;;;16.00;99.90;;;;;;5049250;28;21091;-60
2022/05/13 09:46:50;;;;;;;3.00;1.67;;;16.20;99.90;;;;;;5018582;28;20233;-60
2022/05/13 09:49:26;;;;;;;6.40;2.15;;;16.20;99.90;;;;;;5040865;28;20762;-60
2022/05/13 09:51:56;;;;;;;8.65;1.98;;;16.10;99.90;;;;;;5031332;28;20823;-60
2022/05/13 09:54:27;;;;;;;7.38;2.40;;;15.90;99.90;;;;;;5024639;28;20215;-60
2022/05/13 09:57:08;;;;;;;5.93;2.33;;;15.80;99.90;;;;;;5032633;28;20242;-60
2022/05/13 09:59:39;;;;;;;5.53;1.75;;;15.60;99.90;;;;;;5039462;28;20724;-60
2022/05/13 10:02:24;;;;;;;9.93;2.22;;;15.60;99.90;;;;;;5011865;28;20237;-59
2022/05/13 10:04:54;;;;;;;6.10;2.50;;;16.00;99.90;;;;;;5037664;28;20228;-60
2022/05/13 10:07:25;;;;;;;7.75;2.40;;;15.50;99.90;;;;;;5033775;28;21573;-60
2022/05/13 10:15:31;;;;;;;6.93;2.80;;;15.40;99.90;;;;;;5022970;28;20226;-60
2022/05/13 10:18:06;;;;;;;6.70;2.20;;;15.30;99.90;;;;;;5018261;28;20229;-60
2022/05/13 10:20:39;;;;;;;7.35;2.25;;;15.20;99.90;;;;;;5043900;28;20420;-60
2022/05/13 10:23:13;;;;;;;5.55;1.92;;;15.00;99.90;;;;;;5024023;28;20219;-60
2022/05/13 10:25:52;;;;;;;4.65;1.98;;;14.90;99.90;;;;;;5026495;28;20216;-60
2022/05/13 10:28:24;;;;;;;5.50;2.33;;;14.90;99.90;;;;;;5033890;28;20217;-60
2022/05/13 10:30:55;;;;;;;4.43;1.70;;;15.00;99.90;;;;;;5030356;28;20713;-60
2022/05/13 10:33:28;;;;;;;7.88;1.80;;;15.00;99.90;;;;;;5021353;28;20224;-60
2022/05/13 10:36:00;;;;;;;7.47;1.85;;;15.00;99.90;;;;;;5064963;28;20232;-59
2022/05/13 10:38:35;;;;;;;3.35;1.73;;;15.10;99.90;;;;;;5057308;28;20709;-59
2022/05/13 10:41:13;;;;;;;4.95;1.63;;;15.20;99.90;;;;;;5038209;28;20220;-61
2022/05/13 10:43:47;;;;;;;3.63;1.85;;;15.40;99.90;;;;;;5028323;28;20231;-60
2022/05/13 10:46:22;;;;;;;5.25;1.77;;;15.60;99.90;;;;;;5032216;28;20228;-60
2022/05/13 10:48:51;;;;;;;3.55;1.83;;;15.60;99.90;;;;;;5015100;28;20235;-60
2022/05/13 10:51:23;;;;;;;5.20;1.48;;;15.70;99.90;;;;;;5030609;28;20208;-61
2022/05/13 10:54:12;;;;;;;4.97;1.80;;;15.70;99.90;;;;;;5031826;28;20371;-61
2022/05/13 10:56:46;;;;;;;4.72;2.03;;;15.60;99.90;;;;;;5039448;28;20204;-60
2022/05/13 10:59:30;;;;;;;4.65;1.92;;;15.70;99.90;;;;;;5039339;28;20669;-61
2022/05/13 11:02:14;;;;;;;1.60;1.42;;;15.70;99.90;;;;;;5037430;28;20871;-60
2022/05/13 11:04:46;;;;;;;2.40;1.60;;;15.90;99.90;;;;;;5022421;28;20648;-60
2022/05/13 11:07:23;;;;;;;2.60;1.55;;;16.10;99.90;;;;;;5040405;28;20952;-61
2022/05/13 11:09:58;;;;;;;6.45;1.83;;;16.10;99.90;;;;;;5022696;28;20235;-62
2022/05/13 11:12:34;;;;;;;2.35;1.83;;;16.10;99.90;;;;;;5033668;28;20231;-59
2022/05/13 11:15:19;;;;;;;6.13;1.83;;;16.00;99.90;;;;;;5043075;28;20284;-60
2022/05/13 11:17:55;;;;;;;2.90;1.70;;;16.00;99.90;;;;;;5038130;28;20716;-60
2022/05/13 11:20:30;;;;;;;4.57;2.10;;;15.90;99.90;;;;;;5031060;28;20225;-60
2022/05/13 11:23:07;;;;;;;3.72;1.75;;;15.80;99.90;;;;;;5051341;28;20521;-60
2022/05/13 11:25:56;;;;;;;4.60;1.48;;;15.70;99.90;;;;;;5041381;28;20197;-61
2022/05/13 11:28:51;;;;;;;8.60;1.58;;;15.70;99.90;;;;;;5040165;28;20236;-60
2022/05/13 11:31:32;;;;;;;5.90;1.80;;;15.80;99.90;;;;;;5037255;28;20193;-61
2022/05/13 11:34:07;;;;;;;3.72;1.77;;;15.90;99.90;;;;;;5035308;28;20811;-60
2022/05/13 11:36:44;;;;;;;3.22;1.35;;;15.90;99.90;;;;;;5029026;28;20207;-61
2022/05/13 11:39:39;;;;;;;4.25;1.55;;;15.90;99.90;;;;;;5038890;28;20207;-61
2022/05/13 11:42:26;;;;;;;4.95;1.55;;;15.80;99.90;;;;;;5066194;22;20729;-61
2022/05/13 11:45:17;;;;;;;5.03;1.70;;;15.80;99.90;;;;;;5004025;28;20212;-60
2022/05/13 11:47:56;;;;;;;5.63;1.80;;;15.80;99.90;;;;;;4989561;28;20682;-61
2022/05/13 11:50:24;;;;;;;5.55;1.75;;;15.80;99.90;;;;;;4989823;28;20301;-60
2022/05/13 11:52:53;;;;;;;3.53;1.50;;;15.80;99.90;;;;;;4987381;28;20202;-60
2022/05/13 11:55:48;;;;;;;4.07;1.55;;;15.80;99.90;;;;;;5010182;28;21216;-60
2022/05/13 11:58:48;;;;;;;3.63;1.63;;;15.80;99.90;;;;;;4996621;28;20202;-61
2022/05/13 12:01:35;;;;;;;4.65;1.67;;;15.70;99.90;;;;;;4977277;28;20274;-61
2022/05/13 12:04:24;;;;;;;8.48;1.83;;;15.80;99.90;;;;;;5010664;28;20231;-60
2022/05/13 12:06:57;;;;;;;3.85;1.60;;;16.00;99.90;;;;;;4985280;28;20396;-61
2022/05/13 12:09:29;;;;;;;4.93;1.88;;;16.20;99.90;;;;;;5027089;28;21214;-60
2022/05/13 12:12:05;;;;;;;2.95;1.65;;;16.10;99.90;;;;;;5013359;28;20228;-61
2022/05/13 12:14:44;;;;;;;3.40;1.58;;;16.10;99.90;;;;;;5029056;28;20223;-61
2022/05/13 12:17:17;;;;;;;4.45;1.50;;;16.20;99.90;;;;;;5015028;28;21022;-61
2022/05/13 12:19:54;;;;;;;3.00;1.83;;;16.30;99.90;;;;;;5030943;28;20206;-61
2022/05/13 12:22:34;;;;;;;2.72;1.67;;;16.40;99.90;;;;;;5001248;28;20212;-60
2022/05/13 12:25:04;;;;;;;3.45;1.70;;;16.50;99.90;;;;;;5029006;28;20205;-64
2022/05/13 12:27:37;;;;;;;4.45;1.75;;;16.70;99.90;;;;;;5022531;28;21200;-62
2022/05/13 12:30:12;;;;;;;2.47;1.55;;;16.50;99.90;;;;;;5034553;28;20202;-61
2022/05/13 12:32:42;;;;;;;2.75;1.38;;;16.60;99.90;;;;;;5019008;28;20221;-61
2022/05/13 12:38:08;;;;;;;5.25;2.20;;;16.70;99.90;;;;;;4971661;28;20259;-61
2022/05/13 12:40:41;;;;;;;9.60;1.83;;;16.80;99.90;;;;;;5000402;28;20206;-61
2022/05/13 12:43:16;;;;;;;2.88;1.55;;;16.80;99.90;;;;;;5014229;28;20218;-60
2022/05/13 12:45:59;;;;;;;3.78;2.00;;;16.90;99.90;;;;;;5013292;28;20209;-62
2022/05/13 12:48:26;;;;;;;4.25;1.67;;;16.90;99.90;;;;;;5012714;28;20228;-62
2022/05/13 12:51:15;;;;;;;8.82;1.90;;;16.90;99.90;;;;;;5015156;28;20225;-62
2022/05/13 12:53:49;;;;;;;2.38;1.52;;;16.90;99.90;;;;;;4995824;28;20217;-60
2022/05/13 12:56:23;;;;;;;3.83;1.45;;;16.90;99.90;;;;;;5014968;28;20205;-60
2022/05/13 12:59:05;;;;;;;3.92;1.60;;;17.00;99.90;;;;;;5016504;28;20801;-60
2022/05/13 13:01:34;;;;;;;3.70;1.38;;;17.10;99.90;;;;;;5010324;28;20201;-60
2022/05/13 13:04:02;;;;;;;5.38;1.50;;;16.80;99.90;;;;;;5015148;28;20212;-59
2022/05/13 13:06:41;;;;;;;3.75;1.13;;;16.80;99.90;;;;;;5005038;28;20200;-60
2022/05/13 13:09:19;;;;;;;4.25;1.42;;;16.70;99.90;;;;;;5000901;28;20237;-60
2022/05/13 13:11:53;;;;;;;2.97;1.35;;;16.80;99.90;;;;;;5021455;28;20236;-60
2022/05/13 13:14:34;;;;;;;3.67;1.30;;;16.80;99.90;;;;;;5010129;28;20217;-60
2022/05/13 13:17:07;;;;;;;3.15;1.30;;;16.90;99.90;;;;;;5027510;28;20202;-60
2022/05/13 13:19:35;;;;;;;4.22;1.50;;;16.90;99.90;;;;;;5013298;28;20441;-60
2022/05/13 13:22:05;;;;;;;5.50;1.70;;;16.90;99.90;;;;;;5011572;28;20228;-61
2022/05/13 13:24:36;;;;;;;3.53;1.23;;;16.80;99.90;;;;;;5003854;28;20232;-60
2022/05/13 13:27:04;;;;;;;6.55;1.13;;;16.70;99.90;;;;;;5013984;28;20701;-60
2022/05/13 13:29:34;;;;;;;1.98;1.20;;;16.60;99.90;;;;;;5027870;28;20580;-60
2022/05/13 13:32:07;;;;;;;2.25;1.40;;;16.50;99.90;;;;;;5046753;28;20462;-60
2022/05/13 13:34:36;;;;;;;3.42;1.45;;;16.50;99.90;;;;;;5041238;28;20218;-61
2022/05/13 13:37:06;;;;;;;2.65;1.08;;;16.50;99.90;;;;;;5030055;28;20195;-60
2022/05/13 13:39:34;;;;;;;5.03;1.58;;;16.50;99.90;;;;;;5012037;28;20306;-61